sensor_id;sensor_type;location;lat;lon;timestamp;pressure;altitude;pressure_sealevel;temperature;humidity
75063;BME280;63981;51.052;13.754;2023-05-10T00:00:27;99917.25;;;13.06;48.46
75063;BME280;63981;51.052;13.754;2023-05-10T00:02:52;99917.00;;;13.09;48.35
75063;BME280;63981;51.052;13.754;2023-05-10T00:05:18;99917.72;;;13.11;47.94
75063;BME280;63981;51.052;13.754;2023-05-10T00:07:44;99908.63;;;13.04;48.59
75063;BME280;63981;51.052;13.754;2023-05-10T00:10:11;99900.44;;;12.95;48.69
75063;BME280;63981;51.052;13.754;2023-05-10T00:12:37;99911.06;;;12.84;48.94
75063;BME280;63981;51.052;13.754;2023-05-10T00:15:03;99862.19;;;12.56;48.99
75063;BME280;63981;51.052;13.754;2023-05-10T00:17:29;99879.47;;;12.72;48.81
75063;BME280;63981;51.052;13.754;2023-05-10T00:19:55;99894.81;;;12.89;48.53
75063;BME280;63981;51.052;13.754;2023-05-10T00:22:21;99889.31;;;12.81;48.55
75063;BME280;63981;51.052;13.754;2023-05-10T00:24:47;99906.34;;;12.88;48.78
75063;BME280;63981;51.052;13.754;2023-05-10T00:27:13;99912.03;;;12.83;48.69
75063;BME280;63981;51.052;13.754;2023-05-10T00:29:38;99886.44;;;12.61;49.18
75063;BME280;63981;51.052;13.754;2023-05-10T00:32:04;99899.06;;;12.69;49.31
75063;BME280;63981;51.052;13.754;2023-05-10T00:34:30;99900.88;;;12.68;49.45
75063;BME280;63981;51.052;13.754;2023-05-10T00:36:56;99838.94;;;12.28;49.62
75063;BME280;63981;51.052;13.754;2023-05-10T00:39:22;99900.88;;;12.57;49.57
75063;BME280;63981;51.052;13.754;2023-05-10T00:41:48;99823.91;;;12.17;49.52
75063;BME280;63981;51.052;13.754;2023-05-10T00:44:15;99899.09;;;12.47;49.82
75063;BME280;63981;51.052;13.754;2023-05-10T00:46:41;99884.88;;;12.70;49.42
75063;BME280;63981;51.052;13.754;2023-05-10T00:49:07;99851.44;;;12.26;49.93
75063;BME280;63981;51.052;13.754;2023-05-10T00:51:33;99889.00;;;12.40;50.21
75063;BME280;63981;51.052;13.754;2023-05-10T00:53:59;99881.34;;;12.26;50.42
75063;BME280;63981;51.052;13.754;2023-05-10T00:56:26;99894.06;;;12.32;50.45
75063;BME280;63981;51.052;13.754;2023-05-10T00:58:54;99889.47;;;12.23;50.83
75063;BME280;63981;51.052;13.754;2023-05-10T01:01:19;99878.69;;;12.15;50.73
75063;BME280;63981;51.052;13.754;2023-05-10T01:03:46;99879.03;;;12.10;50.75
75063;BME280;63981;51.052;13.754;2023-05-10T01:06:30;99877.38;;;11.98;50.65
75063;BME280;63981;51.052;13.754;2023-05-10T01:09:15;99850.31;;;11.84;50.77
75063;BME280;63981;51.052;13.754;2023-05-10T01:12:00;99886.34;;;12.07;50.54
75063;BME280;63981;51.052;13.754;2023-05-10T01:14:47;99819.56;;;11.60;50.49
75063;BME280;63981;51.052;13.754;2023-05-10T01:17:32;99886.34;;;11.96;51.15
75063;BME280;63981;51.052;13.754;2023-05-10T01:20:17;99881.44;;;11.91;50.94
75063;BME280;63981;51.052;13.754;2023-05-10T01:23:25;99832.00;;;11.58;51.52
75063;BME280;63981;51.052;13.754;2023-05-10T01:26:18;99884.56;;;11.85;50.85
75063;BME280;63981;51.052;13.754;2023-05-10T01:29:41;99882.81;;;11.73;51.88
75063;BME280;63981;51.052;13.754;2023-05-10T01:35:19;99880.88;;;11.64;51.41
75063;BME280;63981;51.052;13.754;2023-05-10T01:47:10;99874.00;;;11.50;52.10
75063;BME280;63981;51.052;13.754;2023-05-10T01:49:56;99869.28;;;11.42;53.11
75063;BME280;63981;51.052;13.754;2023-05-10T01:52:42;99840.06;;;11.10;53.20
75063;BME280;63981;51.052;13.754;2023-05-10T01:55:30;99870.78;;;11.22;53.37
75063;BME280;63981;51.052;13.754;2023-05-10T01:58:22;99869.84;;;11.23;53.38
75063;BME280;63981;51.052;13.754;2023-05-10T02:01:09;99868.03;;;11.24;53.46
75063;BME280;63981;51.052;13.754;2023-05-10T02:03:55;99854.56;;;10.92;54.23
75063;BME280;63981;51.052;13.754;2023-05-10T02:06:41;99873.16;;;11.14;53.84
75063;BME280;63981;51.052;13.754;2023-05-10T02:09:27;99871.31;;;11.04;54.15
75063;BME280;63981;51.052;13.754;2023-05-10T02:12:15;99867.88;;;11.14;53.55
75063;BME280;63981;51.052;13.754;2023-05-10T02:15:02;99875.28;;;10.85;55.02
75063;BME280;63981;51.052;13.754;2023-05-10T02:17:47;99859.72;;;10.82;55.07
75063;BME280;63981;51.052;13.754;2023-05-10T02:20:32;99864.09;;;11.06;54.24
75063;BME280;63981;51.052;13.754;2023-05-10T02:23:17;99849.59;;;10.76;55.13
75063;BME280;63981;51.052;13.754;2023-05-10T02:26:03;99863.31;;;10.92;54.58
75063;BME280;63981;51.052;13.754;2023-05-10T02:28:50;99855.75;;;10.88;55.22
75063;BME280;63981;51.052;13.754;2023-05-10T02:31:35;99863.00;;;10.73;55.29
75063;BME280;63981;51.052;13.754;2023-05-10T02:34:21;99858.06;;;10.92;55.07
75063;BME280;63981;51.052;13.754;2023-05-10T02:37:06;99857.00;;;10.95;54.61
75063;BME280;63981;51.052;13.754;2023-05-10T02:39:52;99858.06;;;10.92;54.77
75063;BME280;63981;51.052;13.754;2023-05-10T02:42:41;99856.84;;;10.85;55.38
75063;BME280;63981;51.052;13.754;2023-05-10T02:45:29;99856.59;;;10.88;55.32
75063;BME280;63981;51.052;13.754;2023-05-10T02:48:15;99860.38;;;10.73;55.97
75063;BME280;63981;51.052;13.754;2023-05-10T02:51:02;99856.13;;;10.83;55.45
75063;BME280;63981;51.052;13.754;2023-05-10T02:53:49;99827.59;;;10.64;55.84
75063;BME280;63981;51.052;13.754;2023-05-10T02:56:36;99856.38;;;10.68;56.24
75063;BME280;63981;51.052;13.754;2023-05-10T02:59:24;99859.88;;;10.68;55.97
75063;BME280;63981;51.052;13.754;2023-05-10T03:02:09;99861.59;;;10.80;56.19
75063;BME280;63981;51.052;13.754;2023-05-10T03:04:54;99856.66;;;10.76;55.81
75063;BME280;63981;51.052;13.754;2023-05-10T03:07:20;99853.41;;;10.72;56.21
75063;BME280;63981;51.052;13.754;2023-05-10T03:09:48;99859.19;;;10.77;56.43
75063;BME280;63981;51.052;13.754;2023-05-10T03:12:33;99860.03;;;10.78;56.23
75063;BME280;63981;51.052;13.754;2023-05-10T03:15:11;99864.56;;;10.76;56.57
75063;BME280;63981;51.052;13.754;2023-05-10T03:17:48;99868.28;;;10.73;56.21
75063;BME280;63981;51.052;13.754;2023-05-10T03:20:25;99866.72;;;10.71;56.28
75063;BME280;63981;51.052;13.754;2023-05-10T03:22:55;99868.34;;;10.84;56.62
75063;BME280;63981;51.052;13.754;2023-05-10T03:25:26;99854.81;;;10.89;56.01
75063;BME280;63981;51.052;13.754;2023-05-10T03:27:53;99866.00;;;10.69;56.32
75063;BME280;63981;51.052;13.754;2023-05-10T03:30:20;99860.59;;;10.70;56.28
75063;BME280;63981;51.052;13.754;2023-05-10T03:32:46;99858.38;;;10.64;56.96
75063;BME280;63981;51.052;13.754;2023-05-10T03:35:15;99853.22;;;10.62;56.65
75063;BME280;63981;51.052;13.754;2023-05-10T03:37:41;99857.78;;;10.60;57.13
75063;BME280;63981;51.052;13.754;2023-05-10T03:40:08;99858.97;;;10.56;57.20
75063;BME280;63981;51.052;13.754;2023-05-10T03:42:36;99850.47;;;10.64;57.03
75063;BME280;63981;51.052;13.754;2023-05-10T03:45:02;99846.22;;;10.74;57.10
75063;BME280;63981;51.052;13.754;2023-05-10T03:47:29;99843.47;;;10.76;57.06
75063;BME280;63981;51.052;13.754;2023-05-10T03:49:55;99847.91;;;10.75;57.21
75063;BME280;63981;51.052;13.754;2023-05-10T03:52:21;99845.88;;;10.79;56.92
75063;BME280;63981;51.052;13.754;2023-05-10T03:54:48;99853.69;;;10.80;56.89
75063;BME280;63981;51.052;13.754;2023-05-10T03:57:14;99858.88;;;10.82;56.96
75063;BME280;63981;51.052;13.754;2023-05-10T03:59:40;99857.34;;;10.90;56.61
75063;BME280;63981;51.052;13.754;2023-05-10T04:02:06;99795.06;;;10.53;56.22
75063;BME280;63981;51.052;13.754;2023-05-10T04:04:32;99846.28;;;10.85;56.10
75063;BME280;63981;51.052;13.754;2023-05-10T04:06:58;99865.66;;;10.97;56.37
75063;BME280;63981;51.052;13.754;2023-05-10T04:09:23;99871.47;;;10.89;56.96
75063;BME280;63981;51.052;13.754;2023-05-10T04:11:49;99860.38;;;10.97;56.29
75063;BME280;63981;51.052;13.754;2023-05-10T04:14:15;99867.94;;;11.02;56.80
75063;BME280;63981;51.052;13.754;2023-05-10T04:16:43;99862.44;;;11.05;56.54
75063;BME280;63981;51.052;13.754;2023-05-10T04:19:08;99874.31;;;11.34;56.64
75063;BME280;63981;51.052;13.754;2023-05-10T04:21:34;99785.19;;;11.38;56.52
75063;BME280;63981;51.052;13.754;2023-05-10T04:24:00;99826.59;;;11.37;55.34
75063;BME280;63981;51.052;13.754;2023-05-10T04:26:26;99864.06;;;11.65;55.49
75063;BME280;63981;51.052;13.754;2023-05-10T04:28:52;99847.00;;;11.58;54.52
75063;BME280;63981;51.052;13.754;2023-05-10T04:31:17;99858.63;;;12.01;54.51
75063;BME280;63981;51.052;13.754;2023-05-10T04:33:43;99825.69;;;11.61;54.00
75063;BME280;63981;51.052;13.754;2023-05-10T04:36:09;99831.44;;;11.77;54.32
75063;BME280;63981;51.052;13.754;2023-05-10T04:38:35;99857.53;;;11.93;55.09
75063;BME280;63981;51.052;13.754;2023-05-10T04:41:10;99863.66;;;12.04;53.63
75063;BME280;63981;51.052;13.754;2023-05-10T04:43:37;99855.59;;;11.95;54.32
75063;BME280;63981;51.052;13.754;2023-05-10T04:46:04;99852.38;;;12.25;54.06
75063;BME280;63981;51.052;13.754;2023-05-10T04:48:29;99807.56;;;11.78;53.98
75063;BME280;63981;51.052;13.754;2023-05-10T04:50:55;99778.53;;;11.90;53.92
75063;BME280;63981;51.052;13.754;2023-05-10T04:53:22;99809.28;;;12.13;53.39
75063;BME280;63981;51.052;13.754;2023-05-10T04:55:47;99840.59;;;12.40;53.61
75063;BME280;63981;51.052;13.754;2023-05-10T04:58:14;99778.03;;;11.96;53.28
75063;BME280;63981;51.052;13.754;2023-05-10T05:00:40;99837.59;;;12.33;53.69
75063;BME280;63981;51.052;13.754;2023-05-10T05:03:06;99847.16;;;12.68;52.41
75063;BME280;63981;51.052;13.754;2023-05-10T05:05:31;99838.56;;;12.76;52.88
75063;BME280;63981;51.052;13.754;2023-05-10T05:07:57;99838.94;;;12.82;52.25
75063;BME280;63981;51.052;13.754;2023-05-10T05:10:23;99834.81;;;12.89;52.47
75063;BME280;63981;51.052;13.754;2023-05-10T05:12:49;99834.38;;;12.73;52.71
75063;BME280;63981;51.052;13.754;2023-05-10T05:15:14;99781.06;;;12.57;51.87
75063;BME280;63981;51.052;13.754;2023-05-10T05:17:42;99782.63;;;12.59;51.95
75063;BME280;63981;51.052;13.754;2023-05-10T05:20:09;99838.72;;;13.06;52.03
75063;BME280;63981;51.052;13.754;2023-05-10T05:22:36;99802.72;;;12.83;51.84
75063;BME280;63981;51.052;13.754;2023-05-10T05:25:02;99841.28;;;12.96;51.84
75063;BME280;63981;51.052;13.754;2023-05-10T05:27:29;99841.38;;;13.06;52.06
75063;BME280;63981;51.052;13.754;2023-05-10T05:29:55;99823.47;;;13.31;50.83
75063;BME280;63981;51.052;13.754;2023-05-10T05:32:22;99746.91;;;12.86;50.95
75063;BME280;63981;51.052;13.754;2023-05-10T05:34:48;99838.97;;;13.56;50.64
75063;BME280;63981;51.052;13.754;2023-05-10T05:37:15;99671.13;;;12.75;50.81
75063;BME280;63981;51.052;13.754;2023-05-10T05:39:42;99831.28;;;13.53;50.40
75063;BME280;63981;51.052;13.754;2023-05-10T05:42:09;99826.31;;;13.60;50.53
75063;BME280;63981;51.052;13.754;2023-05-10T05:44:34;99834.94;;;13.41;50.83
75063;BME280;63981;51.052;13.754;2023-05-10T05:47:00;99842.06;;;13.40;50.75
75063;BME280;63981;51.052;13.754;2023-05-10T05:49:26;99839.75;;;13.47;50.81
75063;BME280;63981;51.052;13.754;2023-05-10T05:51:52;99779.31;;;13.31;50.60
75063;BME280;63981;51.052;13.754;2023-05-10T05:54:18;99795.16;;;13.52;50.41
75063;BME280;63981;51.052;13.754;2023-05-10T05:56:44;99828.69;;;13.63;50.58
75063;BME280;63981;51.052;13.754;2023-05-10T05:59:10;99828.22;;;13.78;50.24
75063;BME280;63981;51.052;13.754;2023-05-10T06:01:36;99817.44;;;13.70;50.14
75063;BME280;63981;51.052;13.754;2023-05-10T06:04:02;99850.94;;;14.02;49.36
75063;BME280;63981;51.052;13.754;2023-05-10T06:06:46;99834.38;;;14.19;49.06
75063;BME280;63981;51.052;13.754;2023-05-10T06:09:12;99838.16;;;14.16;49.37
75063;BME280;63981;51.052;13.754;2023-05-10T06:11:38;99793.69;;;13.90;48.55
75063;BME280;63981;51.052;13.754;2023-05-10T06:14:05;99844.75;;;14.32;48.43
75063;BME280;63981;51.052;13.754;2023-05-10T06:16:34;99842.59;;;14.06;48.55
75063;BME280;63981;51.052;13.754;2023-05-10T06:19:00;99858.06;;;14.41;48.87
75063;BME280;63981;51.052;13.754;2023-05-10T06:21:25;99849.19;;;14.52;48.35
75063;BME280;63981;51.052;13.754;2023-05-10T06:23:51;99812.00;;;14.33;47.58
75063;BME280;63981;51.052;13.754;2023-05-10T06:26:17;99863.00;;;14.46;48.09
75063;BME280;63981;51.052;13.754;2023-05-10T06:28:43;99860.81;;;14.61;47.80
75063;BME280;63981;51.052;13.754;2023-05-10T06:31:09;99855.13;;;14.85;47.39
75063;BME280;63981;51.052;13.754;2023-05-10T06:33:36;99867.00;;;14.90;47.24
75063;BME280;63981;51.052;13.754;2023-05-10T06:36:02;99858.47;;;14.77;47.05
75063;BME280;63981;51.052;13.754;2023-05-10T06:38:28;99771.38;;;14.32;47.42
75063;BME280;63981;51.052;13.754;2023-05-10T06:40:54;99850.94;;;15.21;47.14
75063;BME280;63981;51.052;13.754;2023-05-10T06:43:20;99849.25;;;15.20;46.67
75063;BME280;63981;51.052;13.754;2023-05-10T06:45:47;99861.97;;;15.35;46.50
75063;BME280;63981;51.052;13.754;2023-05-10T06:48:13;99852.91;;;15.28;46.57
75063;BME280;63981;51.052;13.754;2023-05-10T06:50:39;99852.88;;;15.67;45.91
75063;BME280;63981;51.052;13.754;2023-05-10T06:53:05;99859.59;;;15.61;45.39
75063;BME280;63981;51.052;13.754;2023-05-10T06:55:30;99837.66;;;15.40;45.43
75063;BME280;63981;51.052;13.754;2023-05-10T06:57:56;99861.56;;;15.40;46.00
75063;BME280;63981;51.052;13.754;2023-05-10T07:00:22;99848.63;;;15.93;45.34
75063;BME280;63981;51.052;13.754;2023-05-10T07:02:48;99857.47;;;16.21;45.02
75063;BME280;63981;51.052;13.754;2023-05-10T07:05:14;99863.75;;;15.74;45.56
75063;BME280;63981;51.052;13.754;2023-05-10T07:07:40;99845.69;;;15.87;44.85
75063;BME280;63981;51.052;13.754;2023-05-10T07:10:06;99808.59;;;15.39;44.60
75063;BME280;63981;51.052;13.754;2023-05-10T07:12:33;99866.63;;;16.00;45.07
75063;BME280;63981;51.052;13.754;2023-05-10T07:14:59;99857.97;;;15.98;45.05
75063;BME280;63981;51.052;13.754;2023-05-10T07:17:24;99856.31;;;16.79;43.88
75063;BME280;63981;51.052;13.754;2023-05-10T07:19:50;99853.75;;;16.87;43.00
75063;BME280;63981;51.052;13.754;2023-05-10T07:22:16;99857.63;;;17.90;40.86
75063;BME280;63981;51.052;13.754;2023-05-10T07:24:42;99864.31;;;16.79;42.80
75063;BME280;63981;51.052;13.754;2023-05-10T07:27:08;99848.94;;;17.44;42.34
75063;BME280;63981;51.052;13.754;2023-05-10T07:29:35;99818.59;;;18.15;40.30
75063;BME280;63981;51.052;13.754;2023-05-10T07:32:00;99846.50;;;17.51;41.57
75063;BME280;63981;51.052;13.754;2023-05-10T07:34:27;99833.75;;;18.56;39.51
75063;BME280;63981;51.052;13.754;2023-05-10T07:36:53;99832.00;;;18.65;39.17
75063;BME280;63981;51.052;13.754;2023-05-10T07:39:19;99844.63;;;18.63;39.59
75063;BME280;63981;51.052;13.754;2023-05-10T07:41:46;99846.00;;;20.14;36.64
75063;BME280;63981;51.052;13.754;2023-05-10T07:44:12;99842.06;;;19.93;36.94
75063;BME280;63981;51.052;13.754;2023-05-10T07:46:38;99848.25;;;19.37;37.94
75063;BME280;63981;51.052;13.754;2023-05-10T07:49:03;99841.00;;;20.02;36.51
75063;BME280;63981;51.052;13.754;2023-05-10T07:51:29;99799.31;;;19.61;36.64
75063;BME280;63981;51.052;13.754;2023-05-10T07:53:55;99846.72;;;19.99;37.14
75063;BME280;63981;51.052;13.754;2023-05-10T07:56:31;99853.59;;;19.86;36.96
75063;BME280;63981;51.052;13.754;2023-05-10T07:59:02;99805.31;;;19.71;36.77
75063;BME280;63981;51.052;13.754;2023-05-10T08:01:33;99829.72;;;20.94;34.98
75063;BME280;63981;51.052;13.754;2023-05-10T08:04:00;99837.72;;;21.25;34.25
75063;BME280;63981;51.052;13.754;2023-05-10T08:06:27;99832.38;;;19.11;37.80
75063;BME280;63981;51.052;13.754;2023-05-10T08:08:55;99837.06;;;20.46;35.53
75063;BME280;63981;51.052;13.754;2023-05-10T08:11:22;99823.78;;;20.52;35.83
75063;BME280;63981;51.052;13.754;2023-05-10T08:13:49;99803.06;;;19.99;36.19
75063;BME280;63981;51.052;13.754;2023-05-10T08:16:16;99808.53;;;19.58;36.74
75063;BME280;63981;51.052;13.754;2023-05-10T08:18:43;99841.91;;;20.34;36.51
75063;BME280;63981;51.052;13.754;2023-05-10T08:21:09;99834.66;;;22.03;34.08
75063;BME280;63981;51.052;13.754;2023-05-10T08:23:36;99830.41;;;22.53;32.91
75063;BME280;63981;51.052;13.754;2023-05-10T08:26:03;99831.03;;;25.66;28.31
75063;BME280;63981;51.052;13.754;2023-05-10T08:28:28;99830.81;;;25.94;28.54
75063;BME280;63981;51.052;13.754;2023-05-10T08:30:55;99830.31;;;26.37;28.05
75063;BME280;63981;51.052;13.754;2023-05-10T08:33:21;99804.00;;;23.42;30.69
75063;BME280;63981;51.052;13.754;2023-05-10T08:35:47;99828.50;;;24.37;29.97
75063;BME280;63981;51.052;13.754;2023-05-10T08:38:13;99766.81;;;24.62;29.18
75063;BME280;63981;51.052;13.754;2023-05-10T08:40:41;99836.22;;;24.12;30.30
75063;BME280;63981;51.052;13.754;2023-05-10T08:43:09;99851.28;;;24.07;30.10
75063;BME280;63981;51.052;13.754;2023-05-10T08:45:40;99860.72;;;21.79;34.17
75063;BME280;63981;51.052;13.754;2023-05-10T08:48:07;99844.56;;;25.73;28.19
75063;BME280;63981;51.052;13.754;2023-05-10T08:50:36;99828.38;;;23.34;30.36
75063;BME280;63981;51.052;13.754;2023-05-10T08:53:05;99874.91;;;21.88;32.81
75063;BME280;63981;51.052;13.754;2023-05-10T08:55:32;99867.66;;;24.40;29.04
75063;BME280;63981;51.052;13.754;2023-05-10T08:57:59;99871.09;;;23.22;31.39
75063;BME280;63981;51.052;13.754;2023-05-10T09:00:26;99888.75;;;22.29;31.61
75063;BME280;63981;51.052;13.754;2023-05-10T09:02:52;99858.00;;;22.32;32.90
75063;BME280;63981;51.052;13.754;2023-05-10T09:05:18;99878.34;;;25.36;28.38
75063;BME280;63981;51.052;13.754;2023-05-10T09:07:44;99875.72;;;25.82;28.26
75063;BME280;63981;51.052;13.754;2023-05-10T09:10:11;99862.22;;;27.68;26.12
75063;BME280;63981;51.052;13.754;2023-05-10T09:12:37;99887.56;;;24.39;29.31
75063;BME280;63981;51.052;13.754;2023-05-10T09:15:05;99847.97;;;24.05;30.29
75063;BME280;63981;51.052;13.754;2023-05-10T09:17:31;99880.00;;;26.23;27.37
75063;BME280;63981;51.052;13.754;2023-05-10T09:20:01;99851.38;;;23.58;30.96
75063;BME280;63981;51.052;13.754;2023-05-10T09:22:28;99879.75;;;25.05;29.36
75063;BME280;63981;51.052;13.754;2023-05-10T09:25:12;99871.56;;;24.85;28.94
75063;BME280;63981;51.052;13.754;2023-05-10T09:27:39;99863.13;;;27.30;25.24
75063;BME280;63981;51.052;13.754;2023-05-10T09:30:06;99835.22;;;24.68;27.95
75063;BME280;63981;51.052;13.754;2023-05-10T09:35:11;99882.19;;;24.11;29.41
75063;BME280;63981;51.052;13.754;2023-05-10T09:37:44;99872.06;;;28.48;24.75
75063;BME280;63981;51.052;13.754;2023-05-10T09:40:16;99898.06;;;25.16;27.75
75063;BME280;63981;51.052;13.754;2023-05-10T09:42:50;99871.28;;;28.60;24.72
75063;BME280;63981;51.052;13.754;2023-05-10T09:45:16;99880.00;;;28.98;23.91
75063;BME280;63981;51.052;13.754;2023-05-10T09:47:42;99881.63;;;25.11;28.06
75063;BME280;63981;51.052;13.754;2023-05-10T09:50:08;99881.59;;;26.57;26.44
75063;BME280;63981;51.052;13.754;2023-05-10T09:52:54;99876.34;;;28.93;23.84
75063;BME280;63981;51.052;13.754;2023-05-10T09:55:25;99864.03;;;29.85;21.72
75063;BME280;63981;51.052;13.754;2023-05-10T09:58:01;99878.69;;;28.34;23.97
75063;BME280;63981;51.052;13.754;2023-05-10T10:00:28;99859.47;;;29.02;22.68
75063;BME280;63981;51.052;13.754;2023-05-10T10:02:59;99844.75;;;28.62;23.69
75063;BME280;63981;51.052;13.754;2023-05-10T10:05:33;99868.47;;;29.15;23.08
75063;BME280;63981;51.052;13.754;2023-05-10T10:08:02;99878.09;;;30.29;22.09
75063;BME280;63981;51.052;13.754;2023-05-10T10:10:28;99854.47;;;27.96;24.07
75063;BME280;63981;51.052;13.754;2023-05-10T10:12:55;99882.16;;;27.98;24.34
75063;BME280;63981;51.052;13.754;2023-05-10T10:15:22;99857.84;;;25.94;26.34
75063;BME280;63981;51.052;13.754;2023-05-10T10:17:49;99868.38;;;26.80;26.70
75063;BME280;63981;51.052;13.754;2023-05-10T10:20:16;99870.31;;;29.32;23.65
75063;BME280;63981;51.052;13.754;2023-05-10T10:22:42;99839.56;;;30.20;23.12
75063;BME280;63981;51.052;13.754;2023-05-10T10:25:14;99868.25;;;30.51;22.13
75063;BME280;63981;51.052;13.754;2023-05-10T10:35:45;99887.28;;;26.15;27.21
75063;BME280;63981;51.052;13.754;2023-05-10T10:38:12;99848.78;;;26.40;26.19
75063;BME280;63981;51.052;13.754;2023-05-10T10:40:38;99873.66;;;24.35;28.69
75063;BME280;63981;51.052;13.754;2023-05-10T10:43:24;99866.72;;;27.24;25.15
75063;BME280;63981;51.052;13.754;2023-05-10T10:46:10;99872.88;;;28.67;24.50
75063;BME280;63981;51.052;13.754;2023-05-10T10:48:37;99870.53;;;28.89;23.98
75063;BME280;63981;51.052;13.754;2023-05-10T10:51:03;99871.97;;;29.99;22.91
75063;BME280;63981;51.052;13.754;2023-05-10T10:53:29;99884.53;;;26.49;26.41
75063;BME280;63981;51.052;13.754;2023-05-10T10:56:10;99884.97;;;26.39;26.67
75063;BME280;63981;51.052;13.754;2023-05-10T10:58:37;99874.38;;;28.63;24.04
75063;BME280;63981;51.052;13.754;2023-05-10T11:01:15;99873.00;;;25.95;26.13
75063;BME280;63981;51.052;13.754;2023-05-10T11:03:56;99887.25;;;26.42;27.19
75063;BME280;63981;51.052;13.754;2023-05-10T11:06:40;99885.44;;;25.56;28.19
75063;BME280;63981;51.052;13.754;2023-05-10T11:09:10;99886.44;;;25.16;28.97
75063;BME280;63981;51.052;13.754;2023-05-10T11:11:49;99883.13;;;26.20;26.83
75063;BME280;63981;51.052;13.754;2023-05-10T11:14:20;99842.75;;;29.05;23.52
75063;BME280;63981;51.052;13.754;2023-05-10T11:16:46;99888.50;;;26.39;26.65
75063;BME280;63981;51.052;13.754;2023-05-10T11:19:13;99868.47;;;29.45;22.54
75063;BME280;63981;51.052;13.754;2023-05-10T11:21:52;99869.81;;;30.36;21.79
75063;BME280;63981;51.052;13.754;2023-05-10T11:24:36;99878.75;;;32.73;20.38
75063;BME280;63981;51.052;13.754;2023-05-10T11:27:02;99884.16;;;26.90;25.15
75063;BME280;63981;51.052;13.754;2023-05-10T11:29:28;99884.09;;;28.16;23.99
75063;BME280;63981;51.052;13.754;2023-05-10T11:31:57;99884.69;;;28.18;24.57
75063;BME280;63981;51.052;13.754;2023-05-10T11:34:28;99881.41;;;27.66;24.78
75063;BME280;63981;51.052;13.754;2023-05-10T11:36:59;99886.25;;;26.36;26.07
75063;BME280;63981;51.052;13.754;2023-05-10T11:39:27;99892.88;;;26.34;26.76
75063;BME280;63981;51.052;13.754;2023-05-10T11:41:53;99861.72;;;27.77;24.69
75063;BME280;63981;51.052;13.754;2023-05-10T11:44:19;99897.69;;;25.39;27.15
75063;BME280;63981;51.052;13.754;2023-05-10T11:46:45;99873.03;;;31.75;20.25
75063;BME280;63981;51.052;13.754;2023-05-10T11:49:11;99892.94;;;25.94;26.30
75063;BME280;63981;51.052;13.754;2023-05-10T11:51:38;99898.16;;;25.82;26.48
75063;BME280;63981;51.052;13.754;2023-05-10T11:54:09;99881.66;;;28.08;23.70
75063;BME280;63981;51.052;13.754;2023-05-10T11:56:37;99903.94;;;25.66;27.09
75063;BME280;63981;51.052;13.754;2023-05-10T11:59:03;99881.34;;;27.73;25.58
75063;BME280;63981;51.052;13.754;2023-05-10T12:01:30;99878.94;;;33.10;19.64
75063;BME280;63981;51.052;13.754;2023-05-10T12:03:57;99863.50;;;27.58;25.08
75063;BME280;63981;51.052;13.754;2023-05-10T12:06:27;99852.28;;;30.43;22.58
75063;BME280;63981;51.052;13.754;2023-05-10T12:08:54;99896.50;;;30.62;21.36
75063;BME280;63981;51.052;13.754;2023-05-10T12:11:20;99900.47;;;26.70;25.64
75063;BME280;63981;51.052;13.754;2023-05-10T12:13:47;99897.88;;;29.06;23.17
75063;BME280;63981;51.052;13.754;2023-05-10T12:16:17;99883.00;;;31.53;20.79
75063;BME280;63981;51.052;13.754;2023-05-10T12:18:44;99880.16;;;31.31;20.37
75063;BME280;63981;51.052;13.754;2023-05-10T12:21:11;99902.84;;;25.27;28.15
75063;BME280;63981;51.052;13.754;2023-05-10T12:23:38;99914.53;;;24.93;29.06
75063;BME280;63981;51.052;13.754;2023-05-10T12:26:05;99907.44;;;25.40;28.02
75063;BME280;63981;51.052;13.754;2023-05-10T12:28:32;99896.81;;;28.89;23.10
75063;BME280;63981;51.052;13.754;2023-05-10T12:31:02;99896.00;;;29.48;22.78
75063;BME280;63981;51.052;13.754;2023-05-10T12:33:39;99895.47;;;27.50;25.13
75063;BME280;63981;51.052;13.754;2023-05-10T12:36:08;99873.69;;;35.35;18.01
75063;BME280;63981;51.052;13.754;2023-05-10T12:38:34;99898.44;;;27.42;24.85
75063;BME280;63981;51.052;13.754;2023-05-10T12:41:02;99875.75;;;28.36;24.40
75063;BME280;63981;51.052;13.754;2023-05-10T12:43:29;99905.16;;;25.57;28.29
75063;BME280;63981;51.052;13.754;2023-05-10T12:45:55;99894.34;;;26.16;27.61
75063;BME280;63981;51.052;13.754;2023-05-10T12:48:22;99899.56;;;26.11;27.34
75063;BME280;63981;51.052;13.754;2023-05-10T12:50:48;99872.97;;;27.49;24.23
75063;BME280;63981;51.052;13.754;2023-05-10T12:53:14;99912.00;;;25.46;27.45
75063;BME280;63981;51.052;13.754;2023-05-10T12:55:43;99912.41;;;25.37;28.44
75063;BME280;63981;51.052;13.754;2023-05-10T12:58:10;99904.88;;;28.77;23.83
75063;BME280;63981;51.052;13.754;2023-05-10T13:00:36;99902.13;;;29.14;23.60
75063;BME280;63981;51.052;13.754;2023-05-10T13:03:04;99894.22;;;31.56;22.22
75063;BME280;63981;51.052;13.754;2023-05-10T13:05:33;99912.13;;;29.85;22.52
75063;BME280;63981;51.052;13.754;2023-05-10T13:07:59;99918.31;;;28.72;25.01
75063;BME280;63981;51.052;13.754;2023-05-10T13:10:25;99912.50;;;29.17;23.50
75063;BME280;63981;51.052;13.754;2023-05-10T13:12:51;99919.13;;;25.94;27.72
75063;BME280;63981;51.052;13.754;2023-05-10T13:15:17;99918.97;;;26.73;26.04
75063;BME280;63981;51.052;13.754;2023-05-10T13:17:43;99911.84;;;26.85;26.76
75063;BME280;63981;51.052;13.754;2023-05-10T13:20:09;99913.47;;;30.06;22.34
75063;BME280;63981;51.052;13.754;2023-05-10T13:22:35;99914.00;;;26.63;26.21
75063;BME280;63981;51.052;13.754;2023-05-10T13:25:01;99891.03;;;28.48;24.13
75063;BME280;63981;51.052;13.754;2023-05-10T13:27:28;99902.84;;;28.72;24.03